createdAt,value
2023-04-12T00:02:22.394Z,97929.78
2023-04-12T00:04:55.507Z,97927.38
2023-04-12T00:07:24.817Z,97936.28
2023-04-12T00:09:51.692Z,97932.13
2023-04-12T00:12:19.574Z,97930.56
2023-04-12T00:14:47.292Z,97926.16
2023-04-12T00:17:14.682Z,97929.81
2023-04-12T00:19:45.027Z,97935.06
2023-04-12T00:22:12.583Z,97922.00
2023-04-12T00:24:40.851Z,97919.31
2023-04-12T00:27:09.069Z,97926.34
2023-04-12T00:29:36.233Z,97916.66
2023-04-12T00:32:05.720Z,97924.56
2023-04-12T00:34:32.626Z,97922.25
2023-04-12T00:37:01.384Z,97925.63
2023-04-12T00:39:28.319Z,97911.72
2023-04-12T00:41:57.069Z,97915.31
2023-04-12T00:44:24.746Z,97903.97
2023-04-12T00:46:52.025Z,97911.06
2023-04-12T00:49:19.150Z,97909.34
2023-04-12T00:51:46.511Z,97900.69
2023-04-12T00:54:14.459Z,97903.44
2023-04-12T00:56:41.790Z,97900.03
2023-04-12T00:59:08.686Z,97891.47
2023-04-12T01:01:41.426Z,97893.31
2023-04-12T01:04:09.387Z,97890.00
2023-04-12T01:07:01.757Z,97889.31
2023-04-12T01:09:47.245Z,97891.47
2023-04-12T01:12:29.650Z,97898.81
2023-04-12T01:15:13.202Z,97898.22
2023-04-12T01:18:09.829Z,97904.66
2023-04-12T01:20:48.442Z,97901.25
2023-04-12T01:23:29.885Z,97903.00
2023-04-12T01:26:33.106Z,97904.78
2023-04-12T01:29:04.797Z,97901.25
2023-04-12T01:31:33.077Z,97902.09
2023-04-12T01:34:03.359Z,97904.66
2023-04-12T01:36:30.998Z,97902.84
2023-04-12T01:38:58.302Z,97898.53
2023-04-12T01:41:25.342Z,97903.69
2023-04-12T01:43:52.497Z,97901.06
2023-04-12T01:46:23.334Z,97890.56
2023-04-12T01:48:53.596Z,97879.13
2023-04-12T01:51:34.763Z,97889.81
2023-04-12T01:54:12.171Z,97894.97
2023-04-12T01:56:43.461Z,97890.66
2023-04-12T01:59:14.934Z,97887.88
2023-04-12T02:01:43.126Z,97894.97
2023-04-12T02:04:11.764Z,97893.19
2023-04-12T02:06:40.140Z,97893.97
2023-04-12T02:09:07.315Z,97882.63
2023-04-12T02:11:35.046Z,97884.31
2023-04-12T02:14:02.256Z,97878.22
2023-04-12T02:16:29.596Z,97886.34
2023-04-12T02:18:57.525Z,97890.66
2023-04-12T02:21:25.124Z,97890.81
2023-04-12T02:23:52.284Z,97895.22
2023-04-12T02:26:19.312Z,97887.66
2023-04-12T02:28:46.471Z,97888.78
2023-04-12T02:31:13.485Z,97890.50
2023-04-12T02:33:41.278Z,97892.44
2023-04-12T02:36:10.401Z,97888.97
2023-04-12T02:38:37.575Z,97891.59
2023-04-12T02:41:04.691Z,97891.66
2023-04-12T02:43:33.229Z,97898.53
2023-04-12T02:46:00.517Z,97900.41
2023-04-12T02:48:27.758Z,97899.28
2023-04-12T02:50:54.721Z,97903.63
2023-04-12T02:53:21.898Z,97899.16
2023-04-12T02:55:48.767Z,97907.81
2023-04-12T02:58:16.690Z,97909.47
2023-04-12T03:00:43.920Z,97903.41
2023-04-12T03:03:11.342Z,97909.59
2023-04-12T03:05:39.765Z,97906.97
2023-04-12T03:08:06.967Z,97910.50
2023-04-12T03:10:33.837Z,97914.84
2023-04-12T03:13:01.049Z,97917.28
2023-04-12T03:15:28.258Z,97918.44
2023-04-12T03:17:55.614Z,97915.81
2023-04-12T03:20:24.660Z,97918.53
2023-04-12T03:22:51.843Z,97920.84
2023-04-12T03:25:18.785Z,97915.59
2023-04-12T03:27:46.074Z,97914.81
2023-04-12T03:30:13.434Z,97922.75
2023-04-12T03:32:42.298Z,97919.28
2023-04-12T03:35:10.252Z,97915.28
2023-04-12T03:37:40.914Z,97921.28
2023-04-12T03:40:08.650Z,97924.13
2023-04-12T03:42:36.577Z,97913.94
2023-04-12T03:45:03.808Z,97916.69
2023-04-12T03:47:31.810Z,97914.69
2023-04-12T03:50:11.373Z,97921.00
2023-04-12T03:52:39.113Z,97925.69
2023-04-12T03:55:07.916Z,97935.44
2023-04-12T03:57:35.562Z,97925.63
2023-04-12T04:00:02.853Z,97921.63
2023-04-12T04:02:32.034Z,97930.47
2023-04-12T04:04:59.376Z,97933.41
2023-04-12T04:07:27.164Z,97932.69
2023-04-12T04:09:55.338Z,97948.41
2023-04-12T04:12:22.541Z,97952.28
2023-04-12T04:14:49.405Z,97955.91
2023-04-12T04:17:16.667Z,97950.66
2023-04-12T04:19:43.533Z,97954.19
2023-04-12T04:22:12.536Z,97952.63
2023-04-12T04:24:40.230Z,97946.75
2023-04-12T04:27:07.492Z,97953.69
2023-04-12T04:29:34.490Z,97955.53
2023-04-12T04:32:01.745Z,97948.44
2023-04-12T04:34:28.719Z,97951.06
2023-04-12T04:36:55.887Z,97951.97
2023-04-12T04:39:23.081Z,97956.31
2023-04-12T04:41:54.885Z,97960.63
2023-04-12T04:44:22.464Z,97957.09
2023-04-12T04:46:49.733Z,97959.72
2023-04-12T04:49:16.684Z,97961.41
2023-04-12T04:51:44.128Z,97959.03
2023-04-12T04:54:11.404Z,97967.56
2023-04-12T04:56:38.634Z,97958.84
2023-04-12T04:59:05.555Z,97969.88
2023-04-12T05:01:36.140Z,97968.94
2023-04-12T05:04:04.276Z,97977.00
2023-04-12T05:06:31.633Z,97977.84
2023-04-12T05:08:58.724Z,97977.13
2023-04-12T05:11:26.199Z,97975.28
2023-04-12T05:13:53.519Z,97977.84
2023-04-12T05:16:20.807Z,97978.69
2023-04-12T05:18:47.723Z,97977.16
2023-04-12T05:21:14.900Z,97980.72
2023-04-12T05:23:46.849Z,97975.53
2023-04-12T05:26:14.058Z,97981.50
2023-04-12T05:28:41.351Z,97984.91
2023-04-12T05:31:08.694Z,97988.31
2023-04-12T05:33:36.890Z,97979.72
2023-04-12T05:36:04.899Z,97992.03
2023-04-12T05:38:31.876Z,97991.19
2023-04-12T05:40:59.121Z,97988.38
2023-04-12T05:43:26.127Z,97992.63
2023-04-12T05:45:53.446Z,98001.25
2023-04-12T05:48:20.531Z,97991.84
2023-04-12T05:50:54.709Z,97993.81
2023-04-12T05:53:22.106Z,97986.69
2023-04-12T05:55:49.280Z,97994.53
2023-04-12T05:58:16.178Z,97992.63
2023-04-12T06:00:45.392Z,97984.84
2023-04-12T06:03:12.602Z,97981.94
2023-04-12T06:05:40.019Z,97982.66
2023-04-12T06:08:08.669Z,97986.06
2023-04-12T06:10:35.931Z,97978.31
2023-04-12T06:13:02.865Z,97982.66
2023-04-12T06:15:32.065Z,97981.81
2023-04-12T06:18:00.558Z,97980.81
2023-04-12T06:20:28.160Z,97987.63
2023-04-12T06:22:55.185Z,97985.72
2023-04-12T06:25:23.248Z,97985.59
2023-04-12T06:27:50.601Z,97977.72
2023-04-12T06:30:19.188Z,97971.75
2023-04-12T06:32:46.257Z,97971.63
2023-04-12T06:35:13.856Z,97973.34
2023-04-12T06:37:40.751Z,97979.69
2023-04-12T06:40:08.706Z,97970.19
2023-04-12T06:42:36.382Z,97970.97
2023-04-12T06:45:04.104Z,97975.16
2023-04-12T06:47:32.673Z,97966.59
2023-04-12T06:49:59.895Z,97975.31
2023-04-12T06:52:27.466Z,97969.09
2023-04-12T06:54:56.813Z,97966.38
2023-04-12T06:57:23.905Z,97977.72
2023-04-12T06:59:51.582Z,97981.78
2023-04-12T07:02:18.807Z,97979.97
2023-04-12T07:04:46.408Z,97985.97
2023-04-12T07:07:13.595Z,97989.56
2023-04-12T07:09:40.883Z,97988.72
2023-04-12T07:12:07.894Z,97980.66
2023-04-12T07:14:35.114Z,97979.66
2023-04-12T07:17:02.112Z,97972.56
2023-04-12T07:19:31.406Z,97980.22
2023-04-12T07:21:58.943Z,97977.38
2023-04-12T07:24:26.229Z,97979.88
2023-04-12T07:26:55.003Z,97987.69
2023-04-12T07:29:22.463Z,97985.06
2023-04-12T07:31:49.673Z,97992.63
2023-04-12T07:34:17.197Z,97977.66
2023-04-12T07:36:45.017Z,97983.47
2023-04-12T07:39:12.682Z,97977.78
2023-04-12T07:41:39.986Z,97975.50
2023-04-12T07:44:07.233Z,97975.00
2023-04-12T07:46:34.206Z,97982.50
2023-04-12T07:49:01.656Z,97982.13
2023-04-12T07:51:28.568Z,97990.38
2023-04-12T07:53:55.928Z,97988.06
2023-04-12T07:56:23.013Z,97994.56
2023-04-12T07:58:50.301Z,97997.44
2023-04-12T08:01:17.398Z,98004.69
2023-04-12T08:03:44.626Z,98009.38
2023-04-12T08:06:11.967Z,98015.78
2023-04-12T08:08:39.259Z,98018.16
2023-04-12T08:11:06.691Z,98027.53
2023-04-12T08:13:35.250Z,98028.78
2023-04-12T08:16:02.290Z,98031.59
2023-04-12T08:18:29.882Z,98034.34
2023-04-12T08:20:58.701Z,98036.44
2023-04-12T08:23:26.268Z,98039.28
2023-04-12T08:26:02.832Z,98034.81
2023-04-12T08:28:31.152Z,98039.84
2023-04-12T08:30:59.476Z,98037.88
2023-04-12T08:33:27.416Z,98038.50
2023-04-12T08:35:55.321Z,98033.69
2023-04-12T08:38:30.773Z,98035.06
2023-04-12T08:41:08.811Z,98028.72
2023-04-12T08:43:38.154Z,98030.72
2023-04-12T08:46:05.643Z,98026.59
2023-04-12T08:48:33.555Z,98027.63
2023-04-12T08:51:00.946Z,98021.16
2023-04-12T08:53:28.257Z,98016.53
2023-04-12T08:55:55.178Z,98006.34
2023-04-12T08:58:23.277Z,98008.38
2023-04-12T09:00:50.604Z,98000.84
2023-04-12T09:03:18.218Z,98003.59
2023-04-12T09:05:45.525Z,98006.22
2023-04-12T09:08:13.017Z,98005.06
2023-04-12T09:10:40.055Z,98006.44
2023-04-12T09:13:07.450Z,98009.91
2023-04-12T09:15:35.066Z,98004.19
2023-04-12T09:18:10.604Z,98008.34
2023-04-12T09:20:39.172Z,98005.47
2023-04-12T09:23:22.601Z,98008.50
2023-04-12T09:25:52.861Z,98006.78
2023-04-12T09:28:28.030Z,97998.28
2023-04-12T09:30:56.706Z,98002.16
2023-04-12T09:33:38.484Z,98000.25
2023-04-12T09:36:09.406Z,97990.94
2023-04-12T09:38:37.305Z,97990.66
2023-04-12T09:41:27.534Z,97996.19
2023-04-12T09:43:54.906Z,97993.63
2023-04-12T09:46:23.166Z,97994.47
2023-04-12T09:48:52.699Z,97999.78
2023-04-12T09:51:29.458Z,98002.44
2023-04-12T09:53:59.967Z,97990.06
2023-04-12T09:56:35.816Z,97986.84
2023-04-12T09:59:07.264Z,97983.66
2023-04-12T10:01:39.468Z,97978.75
2023-04-12T10:04:08.775Z,97980.22
2023-04-12T10:06:37.328Z,97982.28
2023-04-12T10:09:05.586Z,97985.25
2023-04-12T10:11:34.316Z,97984.63
2023-04-12T10:14:07.095Z,97983.78
2023-04-12T10:16:35.233Z,97982.94
2023-04-12T10:19:04.112Z,97982.41
2023-04-12T10:21:32.079Z,97986.84
2023-04-12T10:23:59.797Z,97975.19
2023-04-12T10:26:27.873Z,97982.81
2023-04-12T10:29:25.543Z,97977.63
2023-04-12T10:31:54.351Z,97975.34
2023-04-12T10:34:31.466Z,97979.34
2023-04-12T10:37:00.659Z,97982.72
2023-04-12T10:39:41.543Z,97984.94
2023-04-12T10:42:30.035Z,97973.72
2023-04-12T10:45:25.623Z,97979.22
2023-04-12T10:47:58.507Z,97979.03
2023-04-12T10:50:32.914Z,97974.78
2023-04-12T10:53:22.103Z,97980.06
2023-04-12T10:55:49.315Z,97976.13
2023-04-12T10:58:50.809Z,97976.25
2023-04-12T11:01:18.928Z,97971.84
2023-04-12T11:04:09.231Z,97976.44
2023-04-12T11:07:11.819Z,97977.34
2023-04-12T11:09:42.821Z,97981.72
2023-04-12T11:12:11.104Z,97982.81
2023-04-12T11:14:44.629Z,97984.66
2023-04-12T11:17:15.044Z,97987.09
2023-04-12T11:19:44.468Z,97985.44
2023-04-12T11:22:14.375Z,97975.94
2023-04-12T11:24:45.957Z,97979.53
2023-04-12T11:27:12.961Z,97982.94
2023-04-12T11:29:40.642Z,97982.38
2023-04-12T11:32:12.966Z,97974.19
2023-04-12T11:34:41.769Z,97976.44
2023-04-12T11:37:09.654Z,97970.28
2023-04-12T11:39:45.233Z,97975.88
2023-04-12T11:42:17.572Z,97975.44
2023-04-12T11:47:18.116Z,97980.50
2023-04-12T11:49:52.680Z,97979.13
2023-04-12T11:52:21.763Z,97977.72
2023-04-12T11:54:50.013Z,97976.81
2023-04-12T11:57:18.763Z,97973.31
2023-04-12T11:59:47.734Z,97968.16
2023-04-12T12:02:23.322Z,97973.41
2023-04-12T12:04:52.469Z,97971.53
2023-04-12T12:07:21.675Z,97972.38
2023-04-12T12:09:50.716Z,97976.75
2023-04-12T12:12:18.860Z,97973.63
2023-04-12T12:14:48.916Z,97964.94
2023-04-12T12:17:17.165Z,97969.28
2023-04-12T12:19:45.800Z,97966.53
2023-04-12T12:22:19.815Z,97969.81
2023-04-12T12:24:48.162Z,97961.47
2023-04-12T12:27:22.526Z,97958.19
2023-04-12T12:29:55.247Z,97962.72
2023-04-12T12:32:23.637Z,97949.38
2023-04-12T12:34:53.564Z,97949.47
2023-04-12T12:37:24.505Z,97944.28
2023-04-12T12:40:14.086Z,97949.91
2023-04-12T12:42:48.788Z,97947.25
2023-04-12T12:45:17.691Z,97941.03
2023-04-12T12:47:49.535Z,97940.69
2023-04-12T12:50:18.704Z,97945.47
2023-04-12T12:52:48.563Z,97937.44
2023-04-12T12:55:17.227Z,97936.28
2023-04-12T12:57:55.137Z,97932.69
2023-04-12T13:00:29.520Z,97930.34
2023-04-12T13:02:56.867Z,97920.41
2023-04-12T13:05:24.520Z,97920.28
2023-04-12T13:07:52.928Z,97910.75
2023-04-12T13:10:20.558Z,97913.00
2023-04-12T13:12:47.544Z,97917.53
2023-04-12T13:17:45.056Z,97910.84
2023-04-12T13:20:12.245Z,97905.59
2023-04-12T13:22:39.160Z,97904.97
2023-04-12T13:25:07.108Z,97892.38
2023-04-12T13:27:34.004Z,97896.28
2023-04-12T13:30:01.318Z,97900.22
2023-04-12T13:32:28.331Z,97896.31
2023-04-12T13:34:56.074Z,97890.16
2023-04-12T13:37:23.164Z,97892.28
2023-04-12T13:39:52.931Z,97893.13
2023-04-12T13:42:20.282Z,97895.88
2023-04-12T13:44:48.723Z,97886.53
2023-04-12T13:47:19.108Z,97893.53
2023-04-12T13:49:46.524Z,97892.66
2023-04-12T13:52:13.563Z,97883.88
2023-04-12T13:54:43.179Z,97879.88
2023-04-12T13:57:10.538Z,97877.88
2023-04-12T13:59:38.495Z,97877.22
2023-04-12T14:02:05.592Z,97876.19
2023-04-12T14:04:33.155Z,97876.28
2023-04-12T14:07:00.165Z,97880.75
2023-04-12T14:09:29.729Z,97871.56
2023-04-12T14:11:57.931Z,97868.84
2023-04-12T14:14:27.411Z,97866.69
2023-04-12T14:16:57.298Z,97874.06
2023-04-12T14:19:25.533Z,97873.47
2023-04-12T14:21:52.776Z,97882.97
2023-04-12T14:24:20.937Z,97880.22
2023-04-12T14:26:50.307Z,97885.31
2023-04-12T14:29:17.758Z,97879.50
2023-04-12T14:31:44.640Z,97890.91
2023-04-12T14:34:13.378Z,97891.75
2023-04-12T14:36:40.770Z,97890.19
2023-04-12T14:39:11.648Z,97887.22
2023-04-12T14:41:40.727Z,97888.06
2023-04-12T14:44:08.121Z,97890.38
2023-04-12T14:46:35.091Z,97887.97
2023-04-12T14:49:02.554Z,97888.59
2023-04-12T14:51:29.914Z,97882.00
2023-04-12T14:53:58.023Z,97885.41
2023-04-12T14:56:29.218Z,97887.94
2023-04-12T14:58:57.575Z,97887.09
2023-04-12T15:01:25.800Z,97889.97
2023-04-12T15:03:53.744Z,97878.53
2023-04-12T15:06:27.316Z,97882.03
2023-04-12T15:08:55.127Z,97887.63
2023-04-12T15:11:26.737Z,97884.25
2023-04-12T15:13:55.584Z,97884.34
2023-04-12T15:16:23.453Z,97889.00
2023-04-12T15:18:51.829Z,97887.22
2023-04-12T15:21:19.177Z,97891.56
2023-04-12T15:23:47.422Z,97895.03
2023-04-12T15:26:14.571Z,97893.88
2023-04-12T15:28:42.548Z,97891.31
2023-04-12T15:31:09.876Z,97890.16
2023-04-12T15:33:37.945Z,97891.34
2023-04-12T15:36:05.502Z,97885.50
2023-04-12T15:38:32.791Z,97880.34
2023-04-12T15:41:01.041Z,97878.66
2023-04-12T15:43:28.940Z,97880.75
2023-04-12T15:45:56.494Z,97880.09
2023-04-12T15:48:25.425Z,97873.22
2023-04-12T15:50:53.776Z,97873.28
2023-04-12T15:53:35.607Z,97882.84
2023-04-12T15:56:05.142Z,97871.13
2023-04-12T15:58:32.831Z,97875.66
2023-04-12T16:00:59.741Z,97872.00
2023-04-12T16:03:27.391Z,97878.91
2023-04-12T16:05:54.948Z,97881.09
2023-04-12T16:08:23.035Z,97880.84
2023-04-12T16:10:50.843Z,97875.09
2023-04-12T16:13:18.651Z,97876.69
2023-04-12T16:15:46.378Z,97882.06
2023-04-12T16:18:13.833Z,97877.91
2023-04-12T16:20:41.123Z,97876.78
2023-04-12T16:23:08.635Z,97870.38
2023-04-12T16:25:36.270Z,97870.16
2023-04-12T16:28:06.784Z,97865.63
2023-04-12T16:30:35.157Z,97859.44
2023-04-12T16:33:02.894Z,97865.75
2023-04-12T16:35:29.883Z,97862.66
2023-04-12T16:37:57.133Z,97868.13
2023-04-12T16:40:24.715Z,97867.78
2023-04-12T16:42:52.101Z,97873.50
2023-04-12T16:45:19.827Z,97864.97
2023-04-12T16:47:47.591Z,97873.25
2023-04-12T16:50:15.517Z,97867.31
2023-04-12T16:52:43.151Z,97861.56
2023-04-12T16:55:13.522Z,97863.09
2023-04-12T16:57:45.173Z,97864.22
2023-04-12T17:00:19.587Z,97882.22
2023-04-12T17:02:49.316Z,97882.09
2023-04-12T17:05:18.377Z,97878.44
2023-04-12T17:07:55.178Z,97887.72
2023-04-12T17:10:23.660Z,97883.69
2023-04-12T17:12:52.923Z,97886.66
2023-04-12T17:15:25.309Z,97882.78
2023-04-12T17:17:54.157Z,97881.47
2023-04-12T17:20:23.172Z,97886.50
2023-04-12T17:22:51.190Z,97890.31
2023-04-12T17:25:19.864Z,97887.13
2023-04-12T17:27:48.711Z,97884.00
2023-04-12T17:30:17.692Z,97888.56
2023-04-12T17:32:48.456Z,97888.41
2023-04-12T17:35:17.889Z,97885.78
2023-04-12T17:37:45.706Z,97889.50
2023-04-12T17:40:13.096Z,97892.28
2023-04-12T17:42:41.918Z,97884.59
2023-04-12T17:45:12.507Z,97887.41
2023-04-12T17:47:42.952Z,97889.94
2023-04-12T17:50:11.288Z,97877.91
2023-04-12T17:52:38.755Z,97892.06
2023-04-12T17:55:07.561Z,97892.16
2023-04-12T17:57:34.980Z,97895.81
2023-04-12T18:00:01.964Z,97892.50
2023-04-12T18:02:29.330Z,97892.56
2023-04-12T18:04:56.591Z,97890.13
2023-04-12T18:07:24.139Z,97892.81
2023-04-12T18:09:51.382Z,97894.88
2023-04-12T18:12:18.780Z,97895.88
2023-04-12T18:14:45.696Z,97895.13
2023-04-12T18:17:12.907Z,97896.06
2023-04-12T18:19:40.153Z,97894.53
2023-04-12T18:22:07.426Z,97895.56
2023-04-12T18:24:35.819Z,97894.03
2023-04-12T18:27:04.995Z,97889.41
2023-04-12T18:29:32.908Z,97889.59
2023-04-12T18:32:00.262Z,97882.97
2023-04-12T18:34:27.622Z,97876.25
2023-04-12T18:36:54.848Z,97873.28
2023-04-12T18:39:22.232Z,97874.63
2023-04-12T18:41:49.512Z,97881.25
2023-04-12T18:44:19.292Z,97873.81
2023-04-12T18:46:46.600Z,97878.69
2023-04-12T18:49:14.527Z,97878.06
2023-04-12T18:51:42.975Z,97867.19
2023-04-12T18:54:13.187Z,97866.81
2023-04-12T18:56:42.342Z,97865.03
2023-04-12T18:59:11.954Z,97863.19
2023-04-12T19:01:39.177Z,97867.25
2023-04-12T19:04:06.435Z,97866.00
2023-04-12T19:06:34.859Z,97863.84
2023-04-12T19:09:02.331Z,97853.19
2023-04-12T19:11:29.435Z,97852.03
2023-04-12T19:13:56.665Z,97857.69
2023-04-12T19:16:24.735Z,97859.97
2023-04-12T19:18:51.835Z,97864.66
2023-04-12T19:21:19.019Z,97865.06
2023-04-12T19:23:45.935Z,97873.41
2023-04-12T19:26:13.165Z,97864.25
2023-04-12T19:28:40.110Z,97873.25
2023-04-12T19:31:10.544Z,97871.69
2023-04-12T19:33:37.795Z,97864.94
2023-04-12T19:36:05.365Z,97865.28
2023-04-12T19:38:32.205Z,97867.06
2023-04-12T19:40:59.405Z,97866.28
2023-04-12T19:43:26.272Z,97876.03
2023-04-12T19:45:53.552Z,97862.44
2023-04-12T19:48:20.754Z,97866.16
2023-04-12T19:50:51.064Z,97859.50
2023-04-12T19:53:18.293Z,97854.41
2023-04-12T19:55:45.464Z,97851.91
2023-04-12T19:58:13.623Z,97852.09
2023-04-12T20:00:41.364Z,97852.50
2023-04-12T20:03:09.414Z,97849.28
2023-04-12T20:05:37.676Z,97842.56
2023-04-12T20:08:04.711Z,97838.50
2023-04-12T20:10:31.879Z,97836.81
2023-04-12T20:12:58.823Z,97832.81
2023-04-12T20:15:26.070Z,97830.44
2023-04-12T20:17:53.311Z,97832.41
2023-04-12T20:20:20.785Z,97836.78
2023-04-12T20:22:51.873Z,97831.75
2023-04-12T20:25:20.656Z,97824.34
2023-04-12T20:27:52.041Z,97824.72
2023-04-12T20:30:21.021Z,97823.09
2023-04-12T20:32:54.655Z,97819.91
2023-04-12T20:35:21.999Z,97824.41
2023-04-12T20:37:51.019Z,97819.44
2023-04-12T20:40:19.438Z,97815.34
2023-04-12T20:42:46.925Z,97818.22
2023-04-12T20:45:17.004Z,97821.19
2023-04-12T20:47:43.904Z,97816.19
2023-04-12T20:50:11.115Z,97811.94
2023-04-12T20:52:38.190Z,97812.03
2023-04-12T20:55:07.414Z,97808.72
2023-04-12T20:57:34.731Z,97815.69
2023-04-12T21:00:06.996Z,97815.00
2023-04-12T21:02:34.212Z,97815.94
2023-04-12T21:05:01.537Z,97815.97
2023-04-12T21:07:28.440Z,97815.22
2023-04-12T21:09:55.578Z,97821.50
2023-04-12T21:12:22.475Z,97818.38
2023-04-12T21:14:50.407Z,97820.47
2023-04-12T21:17:22.441Z,97823.38
2023-04-12T21:19:50.405Z,97822.63
2023-04-12T21:22:17.363Z,97816.66
2023-04-12T21:24:44.658Z,97817.66
2023-04-12T21:27:11.534Z,97815.22
2023-04-12T21:29:41.511Z,97823.13
2023-04-12T21:32:09.652Z,97820.56
2023-04-12T21:34:37.490Z,97822.34
2023-04-12T21:37:04.688Z,97819.78
2023-04-12T21:39:32.446Z,97821.69
2023-04-12T21:41:59.330Z,97833.00
2023-04-12T21:44:26.965Z,97833.16
2023-04-12T21:46:53.884Z,97821.00
2023-04-12T21:49:21.445Z,97831.50
2023-04-12T21:51:49.320Z,97826.28
2023-04-12T21:54:16.820Z,97815.88
2023-04-12T21:56:43.767Z,97811.50
2023-04-12T21:59:11.008Z,97814.19
2023-04-12T22:01:38.135Z,97804.66
2023-04-12T22:04:06.039Z,97809.06
2023-04-12T22:06:33.013Z,97808.19
2023-04-12T22:09:02.059Z,97808.22
2023-04-12T22:11:29.962Z,97811.09
2023-04-12T22:13:58.100Z,97812.22
2023-04-12T22:16:25.236Z,97815.84
2023-04-12T22:18:52.848Z,97821.19
2023-04-12T22:21:19.877Z,97817.72
2023-04-12T22:23:47.013Z,97812.66
2023-04-12T22:26:14.037Z,97811.97
2023-04-12T22:28:41.459Z,97815.66
2023-04-12T22:31:08.824Z,97816.69
2023-04-12T22:33:40.122Z,97810.59
2023-04-12T22:36:07.332Z,97811.38
2023-04-12T22:38:35.406Z,97813.97
2023-04-12T22:41:02.505Z,97812.41
2023-04-12T22:43:41.877Z,97808.19
2023-04-12T22:46:16.239Z,97799.81
2023-04-12T22:48:45.975Z,97799.06
2023-04-12T22:51:12.912Z,97798.28
2023-04-12T22:53:40.813Z,97793.19
2023-04-12T22:56:11.915Z,97791.34
2023-04-12T22:58:40.400Z,97785.38
2023-04-12T23:01:07.626Z,97783.75
2023-04-12T23:03:36.761Z,97789.03
2023-04-12T23:06:05.513Z,97778.78
2023-04-12T23:08:32.751Z,97776.28
2023-04-12T23:11:04.705Z,97776.31
2023-04-12T23:13:35.257Z,97764.38
2023-04-12T23:16:03.526Z,97766.19
2023-04-12T23:18:31.325Z,97758.31
2023-04-12T23:20:58.218Z,97751.31
2023-04-12T23:23:26.338Z,97744.41
2023-04-12T23:25:53.284Z,97746.16
2023-04-12T23:28:22.033Z,97741.13
2023-04-12T23:30:51.031Z,97747.19
2023-04-12T23:33:20.542Z,97749.94
2023-04-12T23:35:58.654Z,97746.50
2023-04-12T23:38:32.682Z,97739.50
2023-04-12T23:41:04.539Z,97747.34
2023-04-12T23:43:32.757Z,97740.53
2023-04-12T23:46:00.399Z,97735.41
2023-04-12T23:48:28.124Z,97725.03
2023-04-12T23:50:55.153Z,97727.75
2023-04-12T23:53:22.414Z,97722.53
2023-04-12T23:55:56.059Z,97720.81
2023-04-12T23:58:24.937Z,97716.44
